createdAt,value
2017-08-12T00:01:46.690Z,55.70
2017-08-12T00:04:15.177Z,50.13
2017-08-12T00:06:43.604Z,54.23
2017-08-12T00:09:12.038Z,46.03
2017-08-12T00:11:40.527Z,46.03
2017-08-12T00:14:08.985Z,43.87
2017-08-12T00:16:37.415Z,43.10
2017-08-12T00:19:05.894Z,42.13
2017-08-12T00:21:34.918Z,38.00
2017-08-12T00:24:03.348Z,44.53
2017-08-12T00:26:31.829Z,45.57
2017-08-12T00:29:00.264Z,42.67
2017-08-12T00:31:28.698Z,53.53
2017-08-12T00:33:57.183Z,50.40
2017-08-12T00:36:26.751Z,48.50
2017-08-12T00:38:55.184Z,39.93
2017-08-12T00:41:24.837Z,64.50
2017-08-12T00:43:53.267Z,56.83
2017-08-12T00:46:23.421Z,63.60
2017-08-12T00:48:51.913Z,57.47
2017-08-12T00:51:20.402Z,51.17
2017-08-12T00:53:48.827Z,44.10
2017-08-12T00:56:17.300Z,61.70
2017-08-12T00:58:46.546Z,79.07
2017-08-12T01:01:14.312Z,63.00
2017-08-12T01:03:42.795Z,62.97
2017-08-12T01:06:11.226Z,96.77
2017-08-12T01:08:40.175Z,56.93
2017-08-12T01:11:09.414Z,76.87
2017-08-12T01:13:38.634Z,55.27
2017-08-12T01:16:07.109Z,60.03
2017-08-12T01:18:35.579Z,82.57
2017-08-12T01:21:04.077Z,98.03
2017-08-12T01:23:32.509Z,88.33
2017-08-12T01:26:00.935Z,76.37
2017-08-12T01:28:29.507Z,70.17
2017-08-12T01:30:57.937Z,63.47
2017-08-12T01:33:26.358Z,74.03
2017-08-12T01:35:55.611Z,61.20
2017-08-12T01:38:24.061Z,70.53
2017-08-12T01:40:52.488Z,41.47
2017-08-12T01:43:21.002Z,40.07
2017-08-12T01:45:49.511Z,51.00
2017-08-12T01:48:19.076Z,41.10
2017-08-12T01:50:47.585Z,40.10
2017-08-12T01:53:16.018Z,45.03
2017-08-12T01:55:44.448Z,45.23
2017-08-12T01:58:12.948Z,42.60
2017-08-12T02:00:41.384Z,28.80
2017-08-12T02:03:09.823Z,33.40
2017-08-12T02:05:38.289Z,33.30
2017-08-12T02:08:06.773Z,34.97
2017-08-12T02:10:35.200Z,37.70
2017-08-12T02:13:03.630Z,27.83
2017-08-12T02:15:31.768Z,28.90
2017-08-12T02:18:00.195Z,30.53
2017-08-12T02:20:28.631Z,30.53
2017-08-12T02:22:58.620Z,37.13
2017-08-12T02:25:27.093Z,50.13
2017-08-12T02:27:55.544Z,34.20
2017-08-12T02:30:24.428Z,40.47
2017-08-12T02:32:52.910Z,45.60
2017-08-12T02:35:21.352Z,61.10
2017-08-12T02:37:49.800Z,40.23
2017-08-12T02:40:18.286Z,37.73
2017-08-12T02:42:46.739Z,39.50
2017-08-12T02:45:15.221Z,51.83
2017-08-12T02:47:43.649Z,73.43
2017-08-12T02:50:12.896Z,36.13
2017-08-12T02:52:41.327Z,37.53
2017-08-12T02:55:10.530Z,76.60
2017-08-12T02:57:39.764Z,41.03
2017-08-12T03:00:08.991Z,53.57
2017-08-12T03:02:37.472Z,58.37
2017-08-12T03:05:05.899Z,56.97
2017-08-12T03:07:35.164Z,42.30
2017-08-12T03:10:03.605Z,34.87
2017-08-12T03:12:32.042Z,24.80
2017-08-12T03:15:00.507Z,28.20
2017-08-12T03:17:29.341Z,33.80
2017-08-12T03:19:58.223Z,23.17
2017-08-12T03:22:28.277Z,21.60
2017-08-12T03:24:56.755Z,20.83
2017-08-12T03:27:25.430Z,26.80
2017-08-12T03:29:54.330Z,23.77
2017-08-12T03:32:22.940Z,22.13
2017-08-12T03:34:52.104Z,25.27
2017-08-12T03:37:20.533Z,20.03
2017-08-12T03:39:49.024Z,19.27
2017-08-12T03:42:17.863Z,21.23
2017-08-12T03:44:46.360Z,16.00
2017-08-12T03:47:16.340Z,15.60
2017-08-12T03:49:44.823Z,16.27
2017-08-12T03:52:13.248Z,15.73
2017-08-12T03:54:41.676Z,21.77
2017-08-12T03:57:10.174Z,17.03
2017-08-12T03:59:38.609Z,15.17
2017-08-12T04:02:07.056Z,15.40
2017-08-12T04:04:36.299Z,14.03
2017-08-12T04:07:05.502Z,12.33
2017-08-12T04:09:33.933Z,15.83
2017-08-12T04:12:03.169Z,13.20
2017-08-12T04:14:32.367Z,18.43
2017-08-12T04:17:00.844Z,13.60
2017-08-12T04:19:29.380Z,25.03
2017-08-12T04:21:57.855Z,15.67
2017-08-12T04:24:26.290Z,15.73
2017-08-12T04:26:54.769Z,13.13
2017-08-12T04:29:23.221Z,19.33
2017-08-12T04:31:51.667Z,20.13
2017-08-12T04:34:20.531Z,15.07
2017-08-12T04:36:48.953Z,34.27
2017-08-12T04:39:17.776Z,13.90
2017-08-12T04:41:46.242Z,20.97
2017-08-12T04:44:14.728Z,16.07
2017-08-12T04:46:43.208Z,13.90
2017-08-12T04:49:12.037Z,14.47
2017-08-12T04:51:41.230Z,17.93
2017-08-12T04:54:10.800Z,17.53
2017-08-12T04:56:40.411Z,11.70
2017-08-12T04:59:08.881Z,15.13
2017-08-12T05:01:37.312Z,13.03
2017-08-12T05:04:06.872Z,13.83
2017-08-12T05:06:35.316Z,13.23
2017-08-12T05:09:03.237Z,11.37
2017-08-12T05:11:31.711Z,11.43
2017-08-12T05:14:01.312Z,10.43
2017-08-12T05:16:29.793Z,11.07
2017-08-12T05:18:58.232Z,12.13
2017-08-12T05:21:26.749Z,16.53
2017-08-12T05:23:55.947Z,13.23
2017-08-12T05:26:24.408Z,11.20
2017-08-12T05:28:52.866Z,9.30
2017-08-12T05:31:22.056Z,11.73
2017-08-12T05:33:50.542Z,10.20
2017-08-12T05:36:18.980Z,10.27
2017-08-12T05:38:47.405Z,11.70
2017-08-12T05:41:16.279Z,11.13
2017-08-12T05:43:45.485Z,11.67
2017-08-12T05:46:14.689Z,12.80
2017-08-12T05:48:44.244Z,11.07
2017-08-12T05:51:12.727Z,12.00
2017-08-12T05:53:41.156Z,10.47
2017-08-12T05:56:09.586Z,12.80
2017-08-12T05:58:38.075Z,15.13
2017-08-12T06:01:06.920Z,13.00
2017-08-12T06:03:35.361Z,12.90
2017-08-12T06:06:04.624Z,20.77
2017-08-12T06:08:34.398Z,12.20
2017-08-12T06:11:04.409Z,12.33
2017-08-12T06:13:32.900Z,19.63
2017-08-12T06:16:01.332Z,16.00
2017-08-12T06:18:30.624Z,16.23
2017-08-12T06:20:59.456Z,13.07
2017-08-12T06:23:28.659Z,21.43
2017-08-12T06:25:57.088Z,11.93
2017-08-12T06:28:25.518Z,12.80
2017-08-12T06:30:54.007Z,11.90
2017-08-12T06:33:22.826Z,11.87
2017-08-12T06:35:51.263Z,12.30
2017-08-12T06:38:19.784Z,14.57
2017-08-12T06:40:48.226Z,14.93
2017-08-12T06:43:16.660Z,14.73
2017-08-12T06:45:45.149Z,13.70
2017-08-12T06:48:13.584Z,12.20
2017-08-12T06:50:42.008Z,18.90
2017-08-12T06:53:10.494Z,11.73
2017-08-12T06:55:38.925Z,18.87
2017-08-12T06:58:07.351Z,12.60
2017-08-12T07:00:35.503Z,12.50
2017-08-12T07:03:03.933Z,12.90
2017-08-12T07:05:32.371Z,17.03
2017-08-12T07:08:01.240Z,12.07
2017-08-12T07:10:29.714Z,16.23
2017-08-12T07:12:58.171Z,12.23
2017-08-12T07:15:26.625Z,15.27
2017-08-12T07:17:55.487Z,18.07
2017-08-12T07:20:24.339Z,15.87
2017-08-12T07:22:53.519Z,14.97
2017-08-12T07:25:23.097Z,15.30
2017-08-12T07:27:51.531Z,18.03
2017-08-12T07:30:20.411Z,17.53
2017-08-12T07:32:48.848Z,15.57
2017-08-12T07:35:18.082Z,16.70
2017-08-12T07:37:46.560Z,13.00
2017-08-12T07:40:15.764Z,20.23
2017-08-12T07:42:44.657Z,12.27
2017-08-12T07:45:13.141Z,14.63
2017-08-12T07:47:42.008Z,11.73
2017-08-12T07:50:10.830Z,15.43
2017-08-12T07:52:39.362Z,13.00
2017-08-12T07:55:07.822Z,15.70
2017-08-12T07:57:36.589Z,17.10
2017-08-12T08:00:05.063Z,13.40
2017-08-12T08:02:33.482Z,9.83
2017-08-12T08:05:02.317Z,11.77
2017-08-12T08:07:31.559Z,12.33
2017-08-12T08:09:59.992Z,11.70
2017-08-12T08:12:28.842Z,11.03
2017-08-12T08:14:57.347Z,8.17
2017-08-12T08:17:26.169Z,8.57
2017-08-12T08:19:55.359Z,8.33
2017-08-12T08:22:23.858Z,6.00
2017-08-12T08:24:52.934Z,6.40
2017-08-12T08:27:21.403Z,6.80
2017-08-12T08:29:50.588Z,4.30
2017-08-12T08:32:20.164Z,7.70
2017-08-12T08:34:48.606Z,5.90
2017-08-12T08:37:17.803Z,3.20
2017-08-12T08:39:47.431Z,7.70
2017-08-12T08:42:16.259Z,4.20
2017-08-12T08:44:45.513Z,3.90
2017-08-12T08:47:13.938Z,6.23
2017-08-12T08:49:42.810Z,7.40
2017-08-12T08:52:11.290Z,3.50
2017-08-12T08:54:40.105Z,4.20
2017-08-12T08:57:08.536Z,5.03
2017-08-12T08:59:37.962Z,7.20
2017-08-12T09:02:06.779Z,8.80
2017-08-12T09:04:36.010Z,4.00
2017-08-12T09:07:05.245Z,4.33
2017-08-12T09:09:33.682Z,9.90
2017-08-12T09:12:03.298Z,5.53
2017-08-12T09:14:32.491Z,4.33
2017-08-12T09:17:00.943Z,2.87
2017-08-12T09:19:30.126Z,3.80
2017-08-12T09:21:58.617Z,3.83
2017-08-12T09:24:28.178Z,3.47
2017-08-12T09:26:56.608Z,4.27
2017-08-12T09:29:25.874Z,6.83
2017-08-12T09:31:54.419Z,3.90
2017-08-12T09:34:23.249Z,5.70
2017-08-12T09:36:51.725Z,4.17
2017-08-12T09:39:20.140Z,3.77
2017-08-12T09:41:49.335Z,5.30
2017-08-12T09:44:17.821Z,5.40
2017-08-12T09:46:47.024Z,6.67
2017-08-12T09:49:15.860Z,4.03
2017-08-12T09:51:44.289Z,8.70
2017-08-12T09:54:12.772Z,3.87
2017-08-12T09:56:42.382Z,6.03
2017-08-12T09:59:11.597Z,5.87
2017-08-12T10:01:40.456Z,9.90
2017-08-12T10:04:09.671Z,4.57
2017-08-12T10:06:39.640Z,9.20
2017-08-12T10:09:08.292Z,5.47
2017-08-12T10:11:36.766Z,8.70
2017-08-12T10:14:06.709Z,3.53
2017-08-12T10:16:35.959Z,6.67
2017-08-12T10:19:04.788Z,7.60
2017-08-12T10:21:33.991Z,9.53
2017-08-12T10:24:02.851Z,7.00
2017-08-12T10:26:32.413Z,6.13
2017-08-12T10:29:00.889Z,6.80
2017-08-12T10:31:29.313Z,9.80
2017-08-12T10:33:58.880Z,9.30
2017-08-12T10:36:29.458Z,8.87
2017-08-12T10:38:58.289Z,6.17
2017-08-12T10:41:26.792Z,12.90
2017-08-12T10:43:55.612Z,8.00
2017-08-12T10:46:24.079Z,11.73
2017-08-12T10:48:52.561Z,8.50
2017-08-12T10:51:20.992Z,9.80
2017-08-12T10:53:49.470Z,5.70
2017-08-12T10:56:18.719Z,19.33
2017-08-12T10:58:47.584Z,8.60
2017-08-12T11:01:16.027Z,9.97
2017-08-12T11:03:44.452Z,8.97
2017-08-12T11:06:12.914Z,7.43
2017-08-12T11:08:41.339Z,9.50
2017-08-12T11:11:10.198Z,8.87
2017-08-12T11:13:39.812Z,10.47
2017-08-12T11:16:08.256Z,7.20
2017-08-12T11:18:37.130Z,5.50
2017-08-12T11:21:05.950Z,8.40
2017-08-12T11:23:35.587Z,8.73
2017-08-12T11:26:04.828Z,6.27
2017-08-12T11:28:34.091Z,9.80
2017-08-12T11:31:02.596Z,5.47
2017-08-12T11:33:31.779Z,4.70
2017-08-12T11:36:00.208Z,4.73
2017-08-12T11:38:28.713Z,5.53
2017-08-12T11:40:57.179Z,5.13
2017-08-12T11:43:26.378Z,13.17
2017-08-12T11:45:54.849Z,9.33
2017-08-12T11:48:24.042Z,4.97
2017-08-12T11:50:52.931Z,7.80
2017-08-12T11:53:21.360Z,7.03
2017-08-12T11:55:50.192Z,8.40
2017-08-12T11:58:18.651Z,7.93
2017-08-12T12:03:15.904Z,5.20
2017-08-12T12:05:45.109Z,13.87
2017-08-12T12:08:13.964Z,6.63
2017-08-12T12:10:42.416Z,8.63
2017-08-12T12:13:10.895Z,4.83
2017-08-12T12:15:40.102Z,12.40
2017-08-12T12:18:08.525Z,7.80
2017-08-12T12:20:37.006Z,9.90
2017-08-12T12:23:05.426Z,5.43
2017-08-12T12:25:33.879Z,8.17
2017-08-12T12:28:02.348Z,5.57
2017-08-12T12:30:30.779Z,8.73
2017-08-12T12:32:59.267Z,7.50
2017-08-12T12:35:27.704Z,10.27
2017-08-12T12:37:56.284Z,4.70
2017-08-12T12:40:25.544Z,3.77
2017-08-12T12:42:53.982Z,9.90
2017-08-12T12:45:22.452Z,4.40
2017-08-12T12:47:50.914Z,6.20
2017-08-12T12:50:19.362Z,3.07
2017-08-12T12:52:48.222Z,9.13
2017-08-12T12:55:18.164Z,5.13
2017-08-12T12:57:46.686Z,8.03
2017-08-12T13:00:16.112Z,6.63
2017-08-12T13:02:44.540Z,5.83
2017-08-12T13:05:13.769Z,7.50
2017-08-12T13:07:42.200Z,10.33
2017-08-12T13:10:10.678Z,5.07
2017-08-12T13:12:39.118Z,7.17
2017-08-12T13:15:08.350Z,10.80
2017-08-12T13:17:37.541Z,4.83
2017-08-12T13:20:07.160Z,8.47
2017-08-12T13:22:35.600Z,6.70
2017-08-12T13:25:04.028Z,7.13
2017-08-12T13:27:33.633Z,9.60
2017-08-12T13:30:02.069Z,9.47
2017-08-12T13:32:31.258Z,5.60
2017-08-12T13:35:00.140Z,4.37
2017-08-12T13:37:28.572Z,4.37
2017-08-12T13:39:57.002Z,5.13
2017-08-12T13:42:26.228Z,2.90
2017-08-12T13:44:54.650Z,10.10
2017-08-12T13:47:24.243Z,6.73
2017-08-12T13:49:52.716Z,2.73
2017-08-12T13:52:21.166Z,4.57
2017-08-12T13:54:50.465Z,7.83
2017-08-12T13:57:18.876Z,7.43
2017-08-12T13:59:47.315Z,7.20
2017-08-12T14:02:15.795Z,9.87
2017-08-12T14:04:44.993Z,4.57
2017-08-12T14:07:13.856Z,12.00
2017-08-12T14:09:42.332Z,9.57
2017-08-12T14:12:10.759Z,9.30
2017-08-12T14:14:39.194Z,7.40
2017-08-12T14:17:07.802Z,10.33
2017-08-12T14:19:37.012Z,15.47
2017-08-12T14:22:06.504Z,10.90
2017-08-12T14:24:35.321Z,5.13
2017-08-12T14:27:04.534Z,15.00
2017-08-12T14:29:33.766Z,6.93
2017-08-12T14:32:02.250Z,16.93
2017-08-12T14:34:31.823Z,7.33
2017-08-12T14:37:01.022Z,9.27
2017-08-12T14:39:29.488Z,8.53
2017-08-12T14:41:58.345Z,8.10
2017-08-12T14:44:26.843Z,4.50
2017-08-12T14:46:56.036Z,8.47
2017-08-12T14:49:24.455Z,6.70
2017-08-12T14:51:52.948Z,7.73
2017-08-12T14:54:21.427Z,4.23
2017-08-12T14:56:50.308Z,6.10
2017-08-12T14:59:18.749Z,3.40
2017-08-12T15:01:47.598Z,9.13
2017-08-12T15:04:16.023Z,4.43
2017-08-12T15:06:45.278Z,5.13
2017-08-12T15:09:13.713Z,4.57
2017-08-12T15:11:42.915Z,12.00
2017-08-12T15:14:11.395Z,6.00
2017-08-12T15:16:39.887Z,8.33
2017-08-12T15:19:08.319Z,5.40
2017-08-12T15:21:37.153Z,7.67
2017-08-12T15:24:06.386Z,6.97
2017-08-12T15:26:34.884Z,6.27
2017-08-12T15:29:03.309Z,7.40
2017-08-12T15:31:32.148Z,8.20
2017-08-12T15:34:01.464Z,8.33
2017-08-12T15:36:29.894Z,6.20
2017-08-12T15:38:59.129Z,6.07
2017-08-12T15:41:28.044Z,7.07
2017-08-12T15:43:56.522Z,9.10
2017-08-12T15:46:25.373Z,7.53
2017-08-12T15:48:53.803Z,7.63
2017-08-12T15:51:22.317Z,9.20
2017-08-12T15:53:50.746Z,17.20
2017-08-12T15:56:21.121Z,12.37
2017-08-12T15:58:49.980Z,7.10
2017-08-12T16:01:18.807Z,6.10
2017-08-12T16:03:48.845Z,8.30
2017-08-12T16:06:18.045Z,6.90
2017-08-12T16:08:46.492Z,12.27
2017-08-12T16:11:15.747Z,14.10
2017-08-12T16:13:44.214Z,11.07
2017-08-12T16:16:13.804Z,6.07
2017-08-12T16:18:42.265Z,7.60
2017-08-12T16:21:10.707Z,6.27
2017-08-12T16:23:39.589Z,17.00
2017-08-12T16:26:08.778Z,7.20
2017-08-12T16:28:37.280Z,6.10
2017-08-12T16:31:06.115Z,4.60
2017-08-12T16:33:34.569Z,7.93
2017-08-12T16:36:03.036Z,5.20
2017-08-12T16:38:31.495Z,6.63
2017-08-12T16:41:00.588Z,7.33
2017-08-12T16:43:29.015Z,6.97
2017-08-12T16:45:57.446Z,6.83
2017-08-12T16:48:25.932Z,6.50
2017-08-12T16:50:54.385Z,17.13
2017-08-12T16:53:22.851Z,11.30
2017-08-12T16:55:51.285Z,12.00
2017-08-12T16:58:19.754Z,10.27
2017-08-12T17:00:48.988Z,4.73
2017-08-12T17:03:17.810Z,8.57
2017-08-12T17:05:46.280Z,12.73
2017-08-12T17:08:14.726Z,8.00
2017-08-12T17:10:43.212Z,5.27
2017-08-12T17:13:12.410Z,12.97
2017-08-12T17:15:40.848Z,12.13
2017-08-12T17:18:09.995Z,6.13
2017-08-12T17:20:38.454Z,5.27
2017-08-12T17:23:07.655Z,3.90
2017-08-12T17:25:36.887Z,3.33
2017-08-12T17:28:05.320Z,10.57
2017-08-12T17:30:34.236Z,4.93
2017-08-12T17:33:02.326Z,13.53
2017-08-12T17:35:30.786Z,5.90
2017-08-12T17:38:00.421Z,4.30
2017-08-12T17:40:28.881Z,12.33
2017-08-12T17:42:57.345Z,4.13
2017-08-12T17:45:25.834Z,7.20
2017-08-12T17:47:54.270Z,5.43
2017-08-12T17:50:22.700Z,9.30
2017-08-12T17:52:51.203Z,9.60
2017-08-12T17:55:19.641Z,7.57
2017-08-12T17:57:48.837Z,13.93
2017-08-12T18:00:17.316Z,6.27
2017-08-12T18:02:45.743Z,4.20
2017-08-12T18:05:14.215Z,5.37
2017-08-12T18:07:42.693Z,6.03
2017-08-12T18:10:11.119Z,7.33
2017-08-12T18:12:39.548Z,4.33
2017-08-12T18:15:08.043Z,10.23
2017-08-12T18:17:36.474Z,5.63
2017-08-12T18:20:04.903Z,5.70
2017-08-12T18:22:33.370Z,9.27
2017-08-12T18:25:01.796Z,4.87
2017-08-12T18:27:30.262Z,6.50
2017-08-12T18:29:58.710Z,6.83
2017-08-12T18:32:27.174Z,6.83
2017-08-12T18:34:56.429Z,8.77
2017-08-12T18:37:24.858Z,5.60
2017-08-12T18:39:53.283Z,9.80
2017-08-12T18:42:21.781Z,8.33
2017-08-12T18:44:50.475Z,5.90
2017-08-12T18:47:20.034Z,5.50
2017-08-12T18:49:48.543Z,14.60
2017-08-12T18:52:16.970Z,8.73
2017-08-12T18:54:45.407Z,7.10
2017-08-12T18:57:14.293Z,8.67
2017-08-12T18:59:42.711Z,6.03
2017-08-12T19:02:12.280Z,6.17
2017-08-12T19:04:40.751Z,5.40
2017-08-12T19:07:09.577Z,5.63
2017-08-12T19:09:38.008Z,6.30
2017-08-12T19:12:06.501Z,6.20
2017-08-12T19:14:34.931Z,6.20
2017-08-12T19:17:03.360Z,6.10
2017-08-12T19:19:31.845Z,6.70
2017-08-12T19:22:00.274Z,4.47
2017-08-12T19:24:28.758Z,8.87
2017-08-12T19:26:57.185Z,6.00
2017-08-12T19:29:25.693Z,7.40
2017-08-12T19:31:54.115Z,7.30
2017-08-12T19:34:22.562Z,7.20
2017-08-12T19:36:51.831Z,4.67
2017-08-12T19:39:20.255Z,10.00
2017-08-12T19:41:48.735Z,11.10
2017-08-12T19:44:17.568Z,7.93
2017-08-12T19:46:46.041Z,7.43
2017-08-12T19:49:14.896Z,7.60
2017-08-12T19:51:44.533Z,13.43
2017-08-12T19:54:12.970Z,11.40
2017-08-12T19:56:41.404Z,5.07
2017-08-12T19:59:10.638Z,6.73
2017-08-12T20:01:39.506Z,4.10
2017-08-12T20:04:08.703Z,10.73
2017-08-12T20:06:38.154Z,7.20
2017-08-12T20:09:06.638Z,5.80
2017-08-12T20:11:35.105Z,7.20
2017-08-12T20:14:06.305Z,11.87
2017-08-12T20:16:34.789Z,5.33
2017-08-12T20:19:03.220Z,9.13
2017-08-12T20:21:32.832Z,5.37
2017-08-12T20:24:02.095Z,5.63
2017-08-12T20:26:30.536Z,3.60
2017-08-12T20:28:58.972Z,8.53
2017-08-12T20:31:27.454Z,4.07
2017-08-12T20:33:55.903Z,11.50
2017-08-12T20:36:24.326Z,9.80
2017-08-12T20:38:53.572Z,6.43
2017-08-12T20:41:21.997Z,6.73
2017-08-12T20:43:51.247Z,6.60
2017-08-12T20:46:19.686Z,5.37
2017-08-12T20:48:48.884Z,7.40
2017-08-12T20:51:17.366Z,5.50
2017-08-12T20:53:46.602Z,4.60
2017-08-12T20:56:15.076Z,6.77
2017-08-12T20:58:43.512Z,7.30
2017-08-12T21:01:12.046Z,7.70
2017-08-12T21:03:40.489Z,9.10
2017-08-12T21:06:09.672Z,4.90
2017-08-12T21:08:38.129Z,7.40
2017-08-12T21:11:06.943Z,7.30
2017-08-12T21:13:35.836Z,5.80
2017-08-12T21:16:05.029Z,8.87
2017-08-12T21:18:33.869Z,4.10
2017-08-12T21:21:02.319Z,7.87
2017-08-12T21:23:31.168Z,5.37
2017-08-12T21:26:00.415Z,5.07
2017-08-12T21:28:28.868Z,10.00
2017-08-12T21:30:58.472Z,7.73
2017-08-12T21:33:26.908Z,9.70
2017-08-12T21:35:55.425Z,18.40
2017-08-12T21:38:23.849Z,4.30
2017-08-12T21:40:52.277Z,13.47
2017-08-12T21:43:20.761Z,6.17
2017-08-12T21:45:49.211Z,8.70
2017-08-12T21:48:17.717Z,5.83
2017-08-12T21:50:46.168Z,9.53
2017-08-12T21:53:14.620Z,8.00
2017-08-12T21:55:43.481Z,6.60
2017-08-12T21:58:12.387Z,5.83
2017-08-12T22:00:41.507Z,5.57
2017-08-12T22:03:09.932Z,8.83
2017-08-12T22:05:38.399Z,7.50
2017-08-12T22:08:06.818Z,11.83
2017-08-12T22:10:35.309Z,8.40
2017-08-12T22:13:04.511Z,7.37
2017-08-12T22:15:32.641Z,8.90
2017-08-12T22:18:01.057Z,9.67
2017-08-12T22:20:29.503Z,6.80
2017-08-12T22:22:57.976Z,6.40
2017-08-12T22:25:26.402Z,8.70
2017-08-12T22:27:54.843Z,16.80
2017-08-12T22:30:23.309Z,6.47
2017-08-12T22:32:51.743Z,8.47
2017-08-12T22:35:20.939Z,13.80
2017-08-12T22:37:49.415Z,21.27
2017-08-12T22:40:18.248Z,13.80
2017-08-12T22:42:46.769Z,11.50
2017-08-12T22:45:15.597Z,16.30
2017-08-12T22:47:44.035Z,10.83
2017-08-12T22:50:12.531Z,13.93
2017-08-12T22:52:41.014Z,12.60
2017-08-12T22:55:09.450Z,13.23
2017-08-12T22:57:37.878Z,9.50
2017-08-12T23:00:06.786Z,11.20
2017-08-12T23:02:35.261Z,9.83
2017-08-12T23:05:04.942Z,12.43
2017-08-12T23:07:33.440Z,11.40
2017-08-12T23:10:01.893Z,9.30
2017-08-12T23:12:30.319Z,12.10
2017-08-12T23:14:58.801Z,10.73
2017-08-12T23:17:27.255Z,9.23
2017-08-12T23:19:55.687Z,15.83
2017-08-12T23:22:24.149Z,9.27
2017-08-12T23:27:37.611Z,9.00
2017-08-12T23:30:06.051Z,8.70
2017-08-12T23:32:34.526Z,8.93
2017-08-12T23:35:03.751Z,9.97
2017-08-12T23:37:32.577Z,8.40
2017-08-12T23:40:01.063Z,15.73
2017-08-12T23:42:29.485Z,12.60
2017-08-12T23:44:57.959Z,12.63
2017-08-12T23:47:27.168Z,7.53
2017-08-12T23:49:55.639Z,10.20
2017-08-12T23:52:24.074Z,14.77
2017-08-12T23:54:52.576Z,7.87
2017-08-12T23:57:21.008Z,7.17
2017-08-12T23:59:49.436Z,14.47
